Time;durP1;ratioP1;P1;durP2;ratioP2;P2;SDS_P1;SDS_P2;PMS_P1;PMS_P2;Temp;Humidity;BMP_temperature;BMP_pressure;BME280_temperature;BME280_humidity;BME280_pressure;Samples;Min_cycle;Max_cycle;Signal;HPM_P1;HPM_P2
2023/06/24 00:02:02;;;;;;;7.93;7.20;;;18.00;99.90;;;;;;6275040;28;20239;-63
2023/06/24 00:05:08;;;;;;;8.20;7.40;;;17.90;99.90;;;;;;6275193;28;20250;-61
2023/06/24 00:08:12;;;;;;;10.63;7.60;;;17.90;99.90;;;;;;6275223;28;20228;-63
2023/06/24 00:11:18;;;;;;;7.70;7.00;;;17.90;99.90;;;;;;6275694;28;20234;-62
2023/06/24 00:14:23;;;;;;;7.93;7.23;;;17.90;99.90;;;;;;6276315;28;20320;-61
2023/06/24 00:17:28;;;;;;;7.93;7.10;;;18.00;99.90;;;;;;6275402;28;20235;-62
2023/06/24 00:20:32;;;;;;;9.07;8.00;;;18.00;99.90;;;;;;6275682;28;20235;-62
2023/06/24 00:23:36;;;;;;;7.27;6.57;;;17.90;99.90;;;;;;6275525;28;20493;-63
2023/06/24 00:26:39;;;;;;;7.80;6.83;;;17.70;99.90;;;;;;6275223;28;20482;-62
2023/06/24 00:29:43;;;;;;;8.70;7.80;;;17.70;99.90;;;;;;6275395;28;20536;-61
2023/06/24 00:32:46;;;;;;;7.13;6.47;;;17.70;99.90;;;;;;6275503;28;20227;-61
2023/06/24 00:35:51;;;;;;;9.10;8.20;;;17.80;99.90;;;;;;6275439;28;20485;-61
2023/06/24 00:38:54;;;;;;;7.97;6.90;;;17.70;99.90;;;;;;6266024;28;20474;-62
2023/06/24 00:41:57;;;;;;;8.30;6.90;;;17.80;99.90;;;;;;6274272;28;20470;-62
2023/06/24 00:45:03;;;;;;;6.20;5.60;;;17.80;99.90;;;;;;6274263;28;20546;-62
2023/06/24 00:48:07;;;;;;;7.73;7.03;;;17.80;99.90;;;;;;6276319;28;20242;-62
2023/06/24 00:51:11;;;;;;;9.30;7.30;;;17.90;99.90;;;;;;6274849;28;20478;-62
2023/06/24 00:54:14;;;;;;;8.50;7.70;;;17.80;99.90;;;;;;6274179;28;20342;-62
2023/06/24 00:57:24;;;;;;;8.47;7.57;;;17.70;99.90;;;;;;6273931;28;20612;-62
2023/06/24 01:00:27;;;;;;;8.83;7.23;;;17.70;99.90;;;;;;6272662;28;20970;-62
2023/06/24 01:03:31;;;;;;;7.00;6.30;;;17.70;99.90;;;;;;6273896;28;20474;-62
2023/06/24 01:06:43;;;;;;;9.37;6.90;;;17.70;99.90;;;;;;6274319;28;20535;-62
2023/06/24 01:09:47;;;;;;;8.13;7.00;;;17.60;99.90;;;;;;6273872;28;20467;-62
2023/06/24 01:12:50;;;;;;;7.50;6.80;;;17.60;99.90;;;;;;6274057;28;20477;-62
2023/06/24 01:15:54;;;;;;;7.37;6.60;;;17.60;99.90;;;;;;6274036;28;20195;-62
2023/06/24 01:19:02;;;;;;;7.10;6.40;;;17.70;99.90;;;;;;6274473;28;20298;-62
2023/06/24 01:22:21;;;;;;;8.60;6.37;;;17.70;99.90;;;;;;6272359;28;20431;-62
2023/06/24 01:25:42;;;;;;;6.50;5.90;;;17.60;99.90;;;;;;6272099;28;20466;-62
2023/06/24 01:29:08;;;;;;;7.27;6.63;;;17.70;99.90;;;;;;6272405;28;20957;-62
2023/06/24 01:32:17;;;;;;;7.13;6.23;;;17.60;99.90;;;;;;6274020;28;20475;-62
2023/06/24 01:35:24;;;;;;;10.60;6.50;;;17.60;99.90;;;;;;6271052;28;20794;-62
2023/06/24 01:38:37;;;;;;;7.13;6.33;;;17.50;99.90;;;;;;6273163;28;20967;-62
2023/06/24 01:41:42;;;;;;;6.47;5.87;;;17.40;99.90;;;;;;6266622;28;20471;-62
2023/06/24 01:44:48;;;;;;;8.23;6.93;;;17.30;99.90;;;;;;6274870;28;20482;-62
2023/06/24 01:48:10;;;;;;;6.83;6.13;;;17.30;99.90;;;;;;6274310;28;20867;-62
2023/06/24 01:51:17;;;;;;;9.57;6.70;;;17.00;99.90;;;;;;6274554;28;20490;-62
2023/06/24 01:54:23;;;;;;;7.37;6.43;;;16.90;99.90;;;;;;6274215;28;20466;-62
2023/06/24 01:57:28;;;;;;;10.70;6.87;;;17.00;99.90;;;;;;6273889;28;20474;-62
2023/06/24 02:00:37;;;;;;;11.50;7.50;;;17.00;99.90;;;;;;6274170;28;20797;-62
2023/06/24 02:03:43;;;;;;;6.93;6.33;;;17.00;99.90;;;;;;6273952;28;20466;-62
2023/06/24 02:06:48;;;;;;;8.27;7.53;;;17.00;99.90;;;;;;6274134;28;20474;-62
2023/06/24 02:09:53;;;;;;;8.30;7.50;;;17.10;99.90;;;;;;6273443;28;20537;-62
2023/06/24 02:12:57;;;;;;;7.40;6.70;;;16.90;99.90;;;;;;6274084;28;20446;-63
2023/06/24 02:16:02;;;;;;;7.83;6.93;;;17.00;99.90;;;;;;6273728;28;20764;-63
2023/06/24 02:19:09;;;;;;;8.13;7.40;;;17.00;99.90;;;;;;6274045;28;20497;-63
2023/06/24 02:22:13;;;;;;;7.97;7.27;;;16.90;99.90;;;;;;6274020;28;20462;-63
2023/06/24 02:25:16;;;;;;;7.33;6.40;;;16.90;99.90;;;;;;6256621;28;20470;-62
2023/06/24 02:28:20;;;;;;;8.10;7.00;;;16.90;99.90;;;;;;6275843;28;21036;-62
2023/06/24 02:31:23;;;;;;;8.53;7.73;;;16.80;99.90;;;;;;6278345;28;20566;-63
2023/06/24 02:34:29;;;;;;;8.50;7.63;;;16.90;99.90;;;;;;6278432;28;20553;-62
2023/06/24 02:37:32;;;;;;;7.70;7.00;;;16.80;99.90;;;;;;6278197;28;20999;-62
2023/06/24 02:40:35;;;;;;;11.00;8.00;;;16.70;99.90;;;;;;6278202;28;20795;-62
2023/06/24 02:43:38;;;;;;;12.53;8.53;;;16.70;99.90;;;;;;6278270;28;20495;-62
2023/06/24 02:46:43;;;;;;;8.73;7.80;;;16.70;99.90;;;;;;6278381;28;20465;-62
2023/06/24 02:49:48;;;;;;;9.23;8.30;;;16.70;99.90;;;;;;6278116;28;20489;-62
2023/06/24 02:52:53;;;;;;;8.97;7.20;;;16.70;99.90;;;;;;6277911;28;20581;-62
2023/06/24 02:55:57;;;;;;;13.80;7.87;;;16.70;99.90;;;;;;6277650;28;20470;-62
2023/06/24 02:59:00;;;;;;;8.70;7.90;;;16.70;99.90;;;;;;6277736;28;20872;-62
2023/06/24 03:02:05;;;;;;;11.30;8.27;;;16.80;99.90;;;;;;6277927;28;20539;-62
2023/06/24 03:05:11;;;;;;;9.53;8.43;;;16.90;99.90;;;;;;6277950;28;20484;-62
2023/06/24 03:08:15;;;;;;;9.73;8.73;;;17.00;99.90;;;;;;6277662;28;20480;-62
2023/06/24 03:11:18;;;;;;;11.00;7.43;;;17.00;99.90;;;;;;6277241;28;20473;-62
2023/06/24 03:14:21;;;;;;;9.07;7.73;;;17.00;99.90;;;;;;6277390;28;20492;-63
2023/06/24 03:17:25;;;;;;;8.47;7.13;;;17.10;99.90;;;;;;6277068;28;20474;-62
2023/06/24 03:20:38;;;;;;;8.87;8.07;;;17.10;99.90;;;;;;6277033;28;20489;-62
2023/06/24 03:23:42;;;;;;;7.93;7.13;;;17.10;99.90;;;;;;6277059;28;20462;-62
2023/06/24 03:26:45;;;;;;;8.23;7.37;;;17.10;99.90;;;;;;6277328;28;20790;-62
2023/06/24 03:29:48;;;;;;;8.37;7.50;;;17.20;99.90;;;;;;6253017;28;20467;-62
2023/06/24 03:32:51;;;;;;;7.27;6.57;;;17.20;99.90;;;;;;6252585;28;20475;-63
2023/06/24 03:35:55;;;;;;;8.03;7.20;;;17.20;99.90;;;;;;6252107;28;20478;-62
2023/06/24 03:38:59;;;;;;;6.23;5.63;;;17.20;99.90;;;;;;6252039;28;20557;-62
2023/06/24 03:42:02;;;;;;;6.97;6.27;;;17.20;99.90;;;;;;6251903;28;20553;-62
2023/06/24 03:45:06;;;;;;;7.73;6.97;;;17.30;99.90;;;;;;6251861;28;20958;-62
2023/06/24 03:48:09;;;;;;;10.10;6.30;;;17.30;99.90;;;;;;6251670;28;20573;-62
2023/06/24 03:51:13;;;;;;;8.30;7.50;;;17.30;99.90;;;;;;6242738;28;20463;-62
2023/06/24 03:54:17;;;;;;;9.73;8.90;;;17.30;99.90;;;;;;6251920;28;20475;-63
2023/06/24 03:57:20;;;;;;;11.63;8.83;;;17.30;99.90;;;;;;6251616;28;20501;-63
2023/06/24 04:00:24;;;;;;;9.30;8.40;;;17.20;99.90;;;;;;6251636;28;20867;-63
2023/06/24 04:03:28;;;;;;;9.87;8.93;;;17.20;99.90;;;;;;6251547;28;20485;-63
2023/06/24 04:06:33;;;;;;;9.77;8.77;;;17.20;99.90;;;;;;6252872;28;20479;-63
2023/06/24 04:09:36;;;;;;;8.73;8.00;;;17.30;99.90;;;;;;6252726;28;20475;-62
2023/06/24 04:12:39;;;;;;;8.93;7.90;;;17.40;99.90;;;;;;6252496;28;20477;-62
2023/06/24 04:15:42;;;;;;;10.77;9.67;;;17.40;99.90;;;;;;6252152;28;20769;-63
2023/06/24 04:18:46;;;;;;;10.07;9.10;;;17.50;99.90;;;;;;6251403;28;20581;-63
2023/06/24 04:21:50;;;;;;;10.53;9.00;;;17.50;99.90;;;;;;6251062;28;20466;-63
2023/06/24 04:24:53;;;;;;;9.03;8.13;;;17.50;99.90;;;;;;6251207;28;20894;-63
2023/06/24 04:27:57;;;;;;;8.63;7.83;;;17.60;99.90;;;;;;6250971;28;20494;-63
2023/06/24 04:31:00;;;;;;;9.50;8.50;;;17.80;99.90;;;;;;6251381;28;20439;-63
2023/06/24 04:34:03;;;;;;;9.43;8.53;;;17.90;99.90;;;;;;6250629;28;20443;-63
2023/06/24 04:37:08;;;;;;;9.67;7.43;;;18.00;99.90;;;;;;6250910;28;20366;-63
2023/06/24 04:40:12;;;;;;;10.03;8.97;;;18.10;99.90;;;;;;6250636;28;20949;-63
2023/06/24 04:43:15;;;;;;;8.97;8.27;;;18.40;99.90;;;;;;6250596;28;20655;-63
2023/06/24 04:46:18;;;;;;;11.13;8.40;;;18.60;99.90;;;;;;6250746;28;20232;-63
2023/06/24 04:49:22;;;;;;;9.03;7.37;;;18.80;99.90;;;;;;6250581;28;20224;-63
2023/06/24 04:52:26;;;;;;;7.70;7.00;;;19.00;99.90;;;;;;6245749;28;20250;-63
2023/06/24 04:55:30;;;;;;;10.07;7.93;;;19.10;99.90;;;;;;6249763;28;20306;-63
2023/06/24 04:58:34;;;;;;;10.30;6.83;;;19.20;99.90;;;;;;6250320;28;20335;-63
2023/06/24 05:01:37;;;;;;;8.13;7.43;;;19.20;99.90;;;;;;6250127;28;20694;-63
2023/06/24 05:04:41;;;;;;;11.23;8.40;;;19.30;99.90;;;;;;6250256;28;20220;-63
2023/06/24 05:07:49;;;;;;;7.97;7.27;;;19.30;99.90;;;;;;6249772;28;20242;-62
2023/06/24 05:10:52;;;;;;;7.57;6.87;;;19.30;99.90;;;;;;6250087;28;20686;-62
2023/06/24 05:13:55;;;;;;;7.90;7.10;;;19.40;99.90;;;;;;6250359;28;20678;-63
2023/06/24 05:16:58;;;;;;;9.17;7.60;;;19.40;99.90;;;;;;6235468;28;20246;-63
2023/06/24 05:20:02;;;;;;;7.27;6.57;;;19.50;99.90;;;;;;6251335;28;20220;-63
2023/06/24 05:23:07;;;;;;;7.63;6.77;;;19.50;99.90;;;;;;6250170;28;20224;-63
2023/06/24 05:26:13;;;;;;;8.00;7.27;;;19.30;99.90;;;;;;6249698;28;20228;-63
2023/06/24 05:29:16;;;;;;;7.23;6.37;;;19.20;99.90;;;;;;6249294;28;20232;-63
2023/06/24 05:32:20;;;;;;;7.50;6.83;;;19.30;99.90;;;;;;6250035;28;20266;-63
2023/06/24 05:35:23;;;;;;;7.30;6.60;;;19.30;99.90;;;;;;6249512;28;20311;-63
2023/06/24 05:38:28;;;;;;;9.60;6.73;;;19.20;99.90;;;;;;6249517;28;20315;-63
2023/06/24 05:41:31;;;;;;;8.77;6.13;;;19.10;99.90;;;;;;6248984;28;20314;-63
2023/06/24 05:44:34;;;;;;;7.13;6.53;;;19.10;99.90;;;;;;6249460;28;20228;-63
2023/06/24 05:47:38;;;;;;;9.50;6.70;;;19.20;99.90;;;;;;6249183;28;20232;-63
2023/06/24 05:50:42;;;;;;;7.13;6.20;;;19.30;99.90;;;;;;6249649;28;20232;-63
2023/06/24 05:53:46;;;;;;;8.03;6.40;;;19.50;99.90;;;;;;6249559;28;20266;-63
2023/06/24 05:56:49;;;;;;;7.20;6.60;;;19.50;99.90;;;;;;6249497;28;20228;-63
2023/06/24 05:59:52;;;;;;;7.40;6.70;;;19.70;99.90;;;;;;6249342;28;20590;-63
2023/06/24 06:02:56;;;;;;;7.13;6.43;;;20.00;99.90;;;;;;6253059;28;20649;-63
2023/06/24 06:05:59;;;;;;;8.53;7.27;;;20.30;99.90;;;;;;6254184;28;20228;-63
2023/06/24 06:09:04;;;;;;;7.87;7.17;;;20.50;99.90;;;;;;6254296;28;20227;-63
2023/06/24 06:12:08;;;;;;;8.13;7.33;;;20.70;99.90;;;;;;6254210;28;20558;-63
2023/06/24 06:15:12;;;;;;;9.03;7.80;;;20.90;99.90;;;;;;6254248;28;20430;-63
2023/06/24 06:18:15;;;;;;;8.50;7.80;;;21.00;99.90;;;;;;6254100;28;20232;-63
2023/06/24 06:21:21;;;;;;;8.97;7.17;;;21.10;99.90;;;;;;6254081;28;20236;-63
2023/06/24 06:24:25;;;;;;;10.03;7.63;;;21.30;99.90;;;;;;6253886;28;20224;-63
2023/06/24 06:27:28;;;;;;;8.53;7.20;;;21.30;99.90;;;;;;6253579;28;20382;-63
2023/06/24 06:30:32;;;;;;;9.27;8.13;;;21.50;99.90;;;;;;6254064;28;20369;-63
2023/06/24 06:33:35;;;;;;;8.70;8.00;;;22.00;99.90;;;;;;6254137;28;20564;-63
2023/06/24 06:36:38;;;;;;;9.00;8.10;;;22.40;99.90;;;;;;6254064;28;20224;-64
2023/06/24 06:39:42;;;;;;;10.17;7.23;;;22.60;99.90;;;;;;6253845;28;20247;-64
2023/06/24 06:42:46;;;;;;;9.07;8.23;;;22.70;99.90;;;;;;6253757;28;20243;-64
2023/06/24 06:45:49;;;;;;;11.47;7.10;;;22.80;99.90;;;;;;6253189;28;20231;-64
2023/06/24 06:48:52;;;;;;;7.07;6.47;;;22.90;99.90;;;;;;6253326;28;20224;-63
2023/06/24 06:51:55;;;;;;;7.47;6.77;;;22.90;99.90;;;;;;6254986;28;20282;-63
2023/06/24 06:55:00;;;;;;;6.90;6.27;;;22.80;99.90;;;;;;6255649;28;20268;-64
2023/06/24 06:58:03;;;;;;;5.93;5.43;;;22.80;99.90;;;;;;6253228;28;20221;-64
2023/06/24 07:01:06;;;;;;;5.07;4.60;;;22.80;99.90;;;;;;6243627;28;20313;-65
2023/06/24 07:04:10;;;;;;;6.83;4.80;;;22.80;99.90;;;;;;6252912;28;20263;-65
2023/06/24 07:07:13;;;;;;;4.43;4.03;;;22.90;99.90;;;;;;6252621;28;20347;-64
2023/06/24 07:10:18;;;;;;;3.10;2.80;;;23.00;99.90;;;;;;6252690;28;20251;-65
2023/06/24 07:13:21;;;;;;;3.30;3.00;;;23.10;99.10;;;;;;6251756;28;20228;-64
2023/06/24 07:16:24;;;;;;;3.30;3.00;;;23.50;99.80;;;;;;6252583;28;20636;-64
2023/06/24 07:19:27;;;;;;;3.43;2.60;;;24.10;99.20;;;;;;6252162;28;20228;-64
2023/06/24 07:22:31;;;;;;;4.97;3.77;;;24.50;98.20;;;;;;6252623;28;20224;-64
2023/06/24 07:25:36;;;;;;;2.30;2.10;;;25.00;97.60;;;;;;6252451;28;20238;-64
2023/06/24 07:28:39;;;;;;;2.20;1.97;;;25.50;95.40;;;;;;6252180;28;20232;-64
2023/06/24 07:31:42;;;;;;;3.40;2.70;;;25.80;93.90;;;;;;6252844;28;20230;-65
2023/06/24 07:34:46;;;;;;;2.03;1.83;;;26.20;93.50;;;;;;6251960;28;20550;-64
2023/06/24 07:37:50;;;;;;;3.60;1.50;;;27.90;92.90;;;;;;6252256;28;20274;-64
2023/06/24 07:40:54;;;;;;;1.70;1.60;;;29.60;87.80;;;;;;6251379;28;20701;-65
2023/06/24 07:43:57;;;;;;;2.70;1.57;;;30.10;80.50;;;;;;6252238;28;20281;-65
2023/06/24 07:47:00;;;;;;;1.50;1.40;;;30.70;76.60;;;;;;6251942;28;20624;-65
2023/06/24 07:50:06;;;;;;;3.38;0.93;;;31.60;72.50;;;;;;6252100;28;20239;-65
2023/06/24 07:53:09;;;;;;;1.20;0.98;;;31.90;66.20;;;;;;6251603;28;20235;-65
2023/06/24 07:56:13;;;;;;;1.05;0.63;;;32.40;61.40;;;;;;6251489;28;20227;-65
2023/06/24 07:59:17;;;;;;;0.75;0.47;;;32.20;55.60;;;;;;6246122;28;20648;-66
2023/06/24 08:02:20;;;;;;;1.10;0.80;;;31.70;55.80;;;;;;6251609;28;20223;-66
2023/06/24 08:05:23;;;;;;;0.90;0.40;;;31.70;56.20;;;;;;6246505;28;20254;-65
2023/06/24 08:08:26;;;;;;;1.08;0.52;;;31.60;55.40;;;;;;6251238;28;20666;-65
2023/06/24 08:11:31;;;;;;;0.82;0.40;;;31.10;53.70;;;;;;6250761;28;20215;-65
2023/06/24 08:14:35;;;;;;;0.75;0.32;;;30.70;54.80;;;;;;6251198;28;20231;-65
2023/06/24 08:17:38;;;;;;;1.67;0.55;;;30.10;54.90;;;;;;6250979;28;20674;-66
2023/06/24 08:20:41;;;;;;;1.43;0.33;;;29.80;55.30;;;;;;6251253;28;20231;-65
2023/06/24 08:23:44;;;;;;;0.90;0.40;;;29.60;56.40;;;;;;6251200;28;20306;-65
2023/06/24 08:26:49;;;;;;;0.70;0.40;;;29.10;57.20;;;;;;6251756;28;20357;-66
2023/06/24 08:29:52;;;;;;;1.23;0.30;;;28.90;57.50;;;;;;6251170;28;20682;-65
2023/06/24 08:32:56;;;;;;;1.30;1.10;;;28.70;57.30;;;;;;6250395;28;20224;-66
2023/06/24 08:36:00;;;;;;;7.13;3.07;;;28.40;62.50;;;;;;6250267;28;20231;-66
2023/06/24 08:39:03;;;;;;;8.97;2.23;;;28.30;76.20;;;;;;6250838;28;20219;-64
2023/06/24 08:42:08;;;;;;;2.17;1.20;;;28.00;75.90;;;;;;6250204;28;20554;-65
2023/06/24 08:45:12;;;;;;;3.87;1.10;;;27.60;72.70;;;;;;6249873;28;20297;-65
2023/06/24 08:48:16;;;;;;;0.90;0.50;;;27.60;70.80;;;;;;6250579;28;20234;-66
2023/06/24 08:51:22;;;;;;;2.07;0.70;;;27.50;70.50;;;;;;6250056;28;20235;-65
2023/06/24 08:54:26;;;;;;;0.83;0.20;;;27.40;68.50;;;;;;6250450;28;20231;-65
2023/06/24 08:57:30;;;;;;;1.10;0.30;;;27.40;66.40;;;;;;6250100;28;20306;-65
2023/06/24 09:00:34;;;;;;;0.63;0.30;;;27.10;67.20;;;;;;6250869;28;20555;-65
2023/06/24 09:03:38;;;;;;;1.00;0.20;;;27.10;67.80;;;;;;6251101;28;20223;-65
2023/06/24 09:06:41;;;;;;;0.80;0.30;;;27.00;67.40;;;;;;6250284;28;20656;-65
2023/06/24 09:09:45;;;;;;;0.60;0.30;;;26.80;68.50;;;;;;6250059;28;20231;-65
2023/06/24 09:12:55;;;;;;;1.40;0.73;;;26.80;66.70;;;;;;6250020;28;20298;-65
2023/06/24 09:15:59;;;;;;;0.80;0.57;;;26.70;68.50;;;;;;6250165;28;20223;-66
2023/06/24 09:19:02;;;;;;;0.90;0.50;;;27.00;67.10;;;;;;6250151;28;20223;-65
2023/06/24 09:22:16;;;;;;;0.60;0.20;;;27.40;66.20;;;;;;6250450;28;20199;-66
2023/06/24 09:25:19;;;;;;;0.70;0.40;;;27.50;64.40;;;;;;6254693;28;20223;-66
2023/06/24 09:28:27;;;;;;;0.60;0.30;;;27.70;64.10;;;;;;6251063;28;20280;-66
2023/06/24 09:31:33;;;;;;;0.60;0.27;;;27.70;62.90;;;;;;6250072;28;20307;-68
2023/06/24 09:34:37;;;;;;;0.63;0.20;;;27.50;63.30;;;;;;6251102;28;20349;-67
2023/06/24 09:37:40;;;;;;;0.70;0.30;;;27.10;63.70;;;;;;6252531;28;20254;-67
2023/06/24 09:40:46;;;;;;;0.70;0.40;;;27.00;62.40;;;;;;6251143;28;20231;-65
2023/06/24 09:43:50;;;;;;;0.80;0.40;;;27.20;62.30;;;;;;6249169;28;20223;-65
2023/06/24 09:46:55;;;;;;;0.80;0.40;;;27.20;60.50;;;;;;6249700;28;20234;-65
2023/06/24 09:50:02;;;;;;;0.83;0.40;;;27.20;60.80;;;;;;6249957;28;20643;-66
2023/06/24 09:53:07;;;;;;;0.70;0.30;;;27.50;61.30;;;;;;6250028;28;20219;-66
2023/06/24 09:56:12;;;;;;;0.67;0.27;;;27.70;60.80;;;;;;6249345;28;20227;-66
2023/06/24 09:59:20;;;;;;;0.80;0.30;;;27.70;60.10;;;;;;6249463;28;20354;-66
2023/06/24 10:02:23;;;;;;;0.70;0.40;;;27.80;59.60;;;;;;6249292;28;20241;-65
2023/06/24 10:05:27;;;;;;;0.63;0.30;;;27.90;58.30;;;;;;6249346;28;20329;-66
2023/06/24 10:08:32;;;;;;;0.70;0.23;;;28.20;59.10;;;;;;6249597;28;20572;-66
2023/06/24 10:11:35;;;;;;;1.13;0.40;;;28.40;58.30;;;;;;6249356;28;20236;-66
2023/06/24 10:14:40;;;;;;;2.20;0.40;;;28.40;57.30;;;;;;6240634;28;20233;-66
2023/06/24 10:17:43;;;;;;;0.70;0.30;;;28.50;58.00;;;;;;6249325;28;20567;-66
2023/06/24 10:20:49;;;;;;;0.60;0.23;;;28.70;57.60;;;;;;6249832;28;20231;-64
2023/06/24 10:23:54;;;;;;;0.70;0.30;;;29.00;56.80;;;;;;6249129;28;20228;-67
2023/06/24 10:27:02;;;;;;;1.40;0.27;;;28.90;57.10;;;;;;6249307;28;20244;-65
2023/06/24 10:30:08;;;;;;;0.60;0.23;;;28.90;56.40;;;;;;6248840;28;20240;-65
2023/06/24 10:33:12;;;;;;;0.50;0.20;;;28.70;54.90;;;;;;6249128;28;20496;-65
2023/06/24 10:36:42;;;;;;;1.43;0.20;;;28.40;55.30;;;;;;6249081;28;20283;-64
2023/06/24 10:39:54;;;;;;;1.30;0.20;;;27.90;55.90;;;;;;6233300;28;20226;-65
2023/06/24 10:42:57;;;;;;;1.00;0.30;;;27.40;56.50;;;;;;6234904;28;20227;-67
2023/06/24 10:46:01;;;;;;;0.60;0.30;;;26.90;57.80;;;;;;6248004;28;20199;-65
2023/06/24 10:49:05;;;;;;;0.90;0.30;;;26.70;57.90;;;;;;6225639;28;20235;-66
2023/06/24 10:52:09;;;;;;;1.37;0.20;;;26.70;58.60;;;;;;6228344;28;20651;-66
2023/06/24 10:55:15;;;;;;;0.67;0.20;;;26.60;59.00;;;;;;6234576;28;20534;-66
2023/06/24 10:58:19;;;;;;;0.93;0.27;;;26.50;58.90;;;;;;6252856;28;20238;-66
2023/06/24 11:01:23;;;;;;;1.43;0.27;;;26.40;59.90;;;;;;6252818;28;20227;-63
2023/06/24 11:04:27;;;;;;;0.63;0.30;;;26.10;72.10;;;;;;6252399;28;20791;-63
2023/06/24 11:07:34;;;;;;;0.80;0.30;;;25.80;70.40;;;;;;6252113;28;20807;-63
2023/06/24 11:10:47;;;;;;;2.50;0.20;;;25.50;67.60;;;;;;6252505;28;20314;-63
2023/06/24 11:13:50;;;;;;;0.90;0.27;;;25.30;66.80;;;;;;6232934;28;20307;-65
2023/06/24 11:16:55;;;;;;;0.80;0.53;;;25.30;66.60;;;;;;6223816;28;20228;-64
2023/06/24 11:19:59;;;;;;;1.20;0.20;;;25.40;66.10;;;;;;6227574;28;20232;-65
2023/06/24 11:23:02;;;;;;;1.07;0.23;;;25.50;66.10;;;;;;6227952;28;20224;-65
2023/06/24 11:26:06;;;;;;;1.73;0.30;;;25.40;65.80;;;;;;6227822;28;20234;-62
2023/06/24 11:29:11;;;;;;;0.50;0.20;;;25.50;65.40;;;;;;6245939;28;20228;-61
2023/06/24 11:32:15;;;;;;;0.60;0.20;;;25.70;64.70;;;;;;6251993;28;20224;-63
2023/06/24 11:35:19;;;;;;;0.60;0.30;;;25.90;64.10;;;;;;6252032;28;20228;-62
2023/06/24 11:38:22;;;;;;;0.70;0.20;;;25.90;63.80;;;;;;6257381;28;20233;-61
2023/06/24 11:41:27;;;;;;;0.60;0.20;;;25.90;63.20;;;;;;6276370;28;20269;-61
2023/06/24 11:44:32;;;;;;;1.53;0.30;;;26.20;63.10;;;;;;6276156;28;20227;-61
2023/06/24 11:47:38;;;;;;;3.63;0.47;;;26.50;62.00;;;;;;6275769;28;20227;-61
2023/06/24 11:50:42;;;;;;;1.17;0.50;;;26.50;63.10;;;;;;6276479;28;20406;-60
2023/06/24 11:53:46;;;;;;;1.33;0.30;;;26.40;62.20;;;;;;6278517;28;20309;-61
2023/06/24 11:56:52;;;;;;;0.70;0.30;;;26.50;62.40;;;;;;6276797;28;20578;-64
2023/06/24 11:59:55;;;;;;;1.13;0.60;;;26.70;61.70;;;;;;6274707;28;20638;-63
2023/06/24 12:03:02;;;;;;;0.70;0.40;;;26.90;59.20;;;;;;6274562;28;20310;-63
2023/06/24 12:06:06;;;;;;;0.60;0.30;;;27.10;59.30;;;;;;6275338;28;20269;-63
2023/06/24 12:09:10;;;;;;;1.33;0.20;;;27.10;58.80;;;;;;6275127;28;20688;-63
2023/06/24 12:12:13;;;;;;;0.70;0.30;;;27.00;58.80;;;;;;6276104;28;20246;-63
2023/06/24 12:15:16;;;;;;;0.63;0.30;;;26.80;58.40;;;;;;6275801;28;20227;-63
2023/06/24 12:18:21;;;;;;;0.77;0.50;;;26.70;58.40;;;;;;6275778;28;20690;-63
2023/06/24 12:21:24;;;;;;;0.80;0.30;;;26.70;58.60;;;;;;6276173;28;20231;-63
2023/06/24 12:24:27;;;;;;;0.60;0.20;;;26.90;59.10;;;;;;6275857;28;20226;-63
2023/06/24 12:27:30;;;;;;;0.80;0.40;;;26.80;58.00;;;;;;6270392;28;20236;-63
2023/06/24 12:30:34;;;;;;;0.53;0.27;;;26.90;58.10;;;;;;6250959;28;20509;-63
2023/06/24 12:33:39;;;;;;;0.90;0.40;;;27.20;57.00;;;;;;6250980;28;20233;-63
2023/06/24 12:36:42;;;;;;;1.10;0.40;;;27.30;56.90;;;;;;6254169;28;20227;-63
2023/06/24 12:39:47;;;;;;;0.70;0.40;;;27.10;57.10;;;;;;6255299;28;20224;-63
2023/06/24 12:42:50;;;;;;;0.80;0.40;;;27.10;57.10;;;;;;6250839;28;20683;-63
2023/06/24 12:45:53;;;;;;;0.73;0.40;;;27.00;57.30;;;;;;6250647;28;20235;-63
2023/06/24 12:48:58;;;;;;;0.60;0.30;;;26.80;57.10;;;;;;6250044;28;20231;-63
2023/06/24 12:52:02;;;;;;;0.80;0.47;;;26.90;57.10;;;;;;6250370;28;20568;-63
2023/06/24 12:55:06;;;;;;;0.80;0.50;;;26.90;57.80;;;;;;6250398;28;20204;-63
2023/06/24 12:58:10;;;;;;;1.47;0.30;;;27.00;57.70;;;;;;6250947;28;20315;-63
2023/06/24 13:01:13;;;;;;;0.80;0.40;;;27.00;58.40;;;;;;6251054;28;20294;-63
2023/06/24 13:04:22;;;;;;;0.70;0.50;;;27.00;58.20;;;;;;6250844;28;20231;-63
2023/06/24 13:07:25;;;;;;;0.70;0.30;;;27.00;58.40;;;;;;6250640;28;20239;-64
2023/06/24 13:10:29;;;;;;;0.80;0.40;;;27.00;57.50;;;;;;6249647;28;20361;-63
2023/06/24 13:13:32;;;;;;;0.70;0.30;;;26.80;57.70;;;;;;6250086;28;20529;-63
2023/06/24 13:16:35;;;;;;;0.70;0.37;;;26.90;58.20;;;;;;6250758;28;20239;-63
2023/06/24 13:19:40;;;;;;;0.80;0.50;;;26.70;58.30;;;;;;6249904;28;20683;-63
2023/06/24 13:22:43;;;;;;;0.70;0.47;;;26.90;58.30;;;;;;6250122;28;20239;-63
2023/06/24 13:25:47;;;;;;;2.33;0.50;;;27.00;58.00;;;;;;6241136;28;20223;-63
2023/06/24 13:28:50;;;;;;;1.10;0.30;;;27.00;57.30;;;;;;6249690;28;20249;-64
2023/06/24 13:31:54;;;;;;;2.10;0.50;;;27.00;57.10;;;;;;6249722;28;20222;-63
2023/06/24 13:34:59;;;;;;;1.10;0.53;;;26.80;57.70;;;;;;6249710;28;20223;-63
2023/06/24 13:38:02;;;;;;;0.83;0.30;;;26.50;58.10;;;;;;6249829;28;20650;-63
2023/06/24 13:41:05;;;;;;;0.70;0.40;;;26.40;58.10;;;;;;6251478;28;20683;-63
2023/06/24 13:44:09;;;;;;;1.03;0.43;;;26.20;58.70;;;;;;6249881;28;20237;-63
2023/06/24 13:47:13;;;;;;;0.80;0.50;;;26.10;58.70;;;;;;6249694;28;20544;-63
2023/06/24 13:50:17;;;;;;;0.83;0.50;;;26.00;59.10;;;;;;6250772;28;20227;-63
2023/06/24 13:53:20;;;;;;;1.23;0.63;;;26.00;58.90;;;;;;6250910;28;20231;-63
2023/06/24 13:56:24;;;;;;;1.10;0.90;;;25.90;59.50;;;;;;6249626;28;20244;-63
2023/06/24 13:59:28;;;;;;;0.70;0.50;;;25.90;58.70;;;;;;6249837;28;20220;-63
2023/06/24 14:02:31;;;;;;;1.10;0.70;;;25.60;59.60;;;;;;6249381;28;20548;-63
2023/06/24 14:05:35;;;;;;;6.67;1.00;;;25.70;60.20;;;;;;6249508;28;20639;-63
2023/06/24 14:08:39;;;;;;;1.40;0.90;;;25.50;59.50;;;;;;6249888;28;20227;-63
2023/06/24 14:11:42;;;;;;;1.03;0.63;;;25.40;60.10;;;;;;6250877;28;20320;-63
2023/06/24 14:14:45;;;;;;;0.80;0.63;;;25.40;60.20;;;;;;6250555;28;20743;-63
2023/06/24 14:17:48;;;;;;;0.80;0.80;;;25.30;59.90;;;;;;6248910;28;20232;-63
2023/06/24 14:20:53;;;;;;;1.17;0.90;;;25.20;60.00;;;;;;6249642;28;20247;-63
2023/06/24 14:23:56;;;;;;;1.20;1.10;;;25.20;60.30;;;;;;6252760;28;20242;-63
2023/06/24 14:27:09;;;;;;;1.10;0.70;;;25.20;61.40;;;;;;6254004;28;20733;-63
2023/06/24 14:30:13;;;;;;;1.80;1.10;;;25.20;60.40;;;;;;6250247;28;20232;-63
2023/06/24 14:33:16;;;;;;;1.33;0.73;;;25.00;60.50;;;;;;6254518;28;20238;-63
2023/06/24 14:36:21;;;;;;;1.10;0.83;;;25.00;61.10;;;;;;6254179;28;20315;-63
2023/06/24 14:39:24;;;;;;;1.10;1.00;;;25.00;61.10;;;;;;6253838;28;20239;-63
2023/06/24 14:42:30;;;;;;;3.80;1.03;;;25.10;60.70;;;;;;6253686;28;20663;-63
2023/06/24 14:45:33;;;;;;;1.00;0.70;;;25.00;61.00;;;;;;6253241;28;20676;-63
2023/06/24 14:48:37;;;;;;;3.43;0.90;;;25.10;61.00;;;;;;6253903;28;20534;-63
2023/06/24 14:51:41;;;;;;;0.83;0.60;;;25.20;60.70;;;;;;6253647;28;20228;-63
2023/06/24 14:54:44;;;;;;;1.40;0.67;;;25.20;61.00;;;;;;6253119;28;20580;-63
2023/06/24 14:57:47;;;;;;;1.27;0.93;;;25.20;60.20;;;;;;6253247;28;20534;-63
2023/06/24 15:00:50;;;;;;;1.00;0.90;;;25.20;60.50;;;;;;6253726;28;20219;-63
2023/06/24 15:03:54;;;;;;;0.80;0.53;;;25.00;60.40;;;;;;6253342;28;20231;-65
2023/06/24 15:06:58;;;;;;;1.57;0.87;;;25.00;60.30;;;;;;6253756;28;20307;-64
2023/06/24 15:10:02;;;;;;;0.90;0.63;;;24.90;60.50;;;;;;6253126;28;20676;-64
2023/06/24 15:13:05;;;;;;;0.90;0.73;;;24.70;61.10;;;;;;6253189;28;20666;-64
2023/06/24 15:16:08;;;;;;;2.07;0.63;;;24.40;61.70;;;;;;6253192;28;20203;-64
2023/06/24 15:19:12;;;;;;;0.80;0.57;;;24.50;62.90;;;;;;6253296;28;20564;-65
2023/06/24 15:22:16;;;;;;;1.30;0.87;;;24.70;63.00;;;;;;6253482;28;20200;-65
2023/06/24 15:25:19;;;;;;;1.50;1.00;;;24.90;62.70;;;;;;6253665;28;20242;-65
2023/06/24 15:28:23;;;;;;;0.97;0.70;;;25.10;62.90;;;;;;6252836;28;20369;-65
2023/06/24 15:31:26;;;;;;;0.70;0.40;;;25.20;62.10;;;;;;6252900;28;20232;-65
2023/06/24 15:34:29;;;;;;;0.73;0.50;;;25.30;61.30;;;;;;6251902;28;20243;-65
2023/06/24 15:37:34;;;;;;;1.00;0.80;;;25.30;61.80;;;;;;6255472;28;20311;-64
2023/06/24 15:40:40;;;;;;;0.90;0.70;;;25.40;61.10;;;;;;6259314;28;20220;-64
2023/06/24 15:43:43;;;;;;;0.97;0.60;;;25.40;60.70;;;;;;6257200;28;20283;-63
2023/06/24 15:46:46;;;;;;;0.80;0.60;;;25.40;60.90;;;;;;6257454;28;20592;-64
2023/06/24 15:49:51;;;;;;;0.83;0.60;;;25.20;61.30;;;;;;6253836;28;20227;-65
2023/06/24 15:52:56;;;;;;;1.27;0.60;;;25.10;61.60;;;;;;6251668;28;20236;-63
2023/06/24 15:55:59;;;;;;;1.20;0.30;;;24.90;61.40;;;;;;6252577;28;20227;-63
2023/06/24 15:59:02;;;;;;;1.33;0.50;;;24.80;62.00;;;;;;6252295;28;20687;-64